sensor_id;sensor_type;location;lat;lon;timestamp;P1;durP1;ratioP1;P2;durP2;ratioP2
13147;SDS011;6639;50.956;4.242;2024-01-30T00:01:58;5.80;;;5.20;;
13147;SDS011;6639;50.956;4.242;2024-01-30T00:04:25;7.88;;;6.10;;
13147;SDS011;6639;50.956;4.242;2024-01-30T00:06:53;6.28;;;5.68;;
13147;SDS011;6639;50.956;4.242;2024-01-30T00:09:20;7.40;;;5.90;;
13147;SDS011;6639;50.956;4.242;2024-01-30T00:11:47;7.50;;;5.75;;
13147;SDS011;6639;50.956;4.242;2024-01-30T00:14:14;6.43;;;5.82;;
13147;SDS011;6639;50.956;4.242;2024-01-30T00:16:41;6.35;;;5.75;;
13147;SDS011;6639;50.956;4.242;2024-01-30T00:19:08;6.65;;;6.00;;
13147;SDS011;6639;50.956;4.242;2024-01-30T00:21:37;6.80;;;5.75;;
13147;SDS011;6639;50.956;4.242;2024-01-30T00:24:05;9.75;;;6.13;;
13147;SDS011;6639;50.956;4.242;2024-01-30T00:26:32;8.30;;;6.00;;
13147;SDS011;6639;50.956;4.242;2024-01-30T00:29:02;9.40;;;5.80;;
13147;SDS011;6639;50.956;4.242;2024-01-30T00:31:29;7.57;;;5.63;;
13147;SDS011;6639;50.956;4.242;2024-01-30T00:33:56;7.13;;;6.30;;
13147;SDS011;6639;50.956;4.242;2024-01-30T00:36:23;7.72;;;6.00;;
13147;SDS011;6639;50.956;4.242;2024-01-30T00:38:50;8.60;;;6.47;;
13147;SDS011;6639;50.956;4.242;2024-01-30T00:41:18;9.70;;;6.78;;
13147;SDS011;6639;50.956;4.242;2024-01-30T00:43:45;7.57;;;6.28;;
13147;SDS011;6639;50.956;4.242;2024-01-30T00:46:12;7.97;;;5.85;;
13147;SDS011;6639;50.956;4.242;2024-01-30T00:48:39;7.57;;;6.47;;
13147;SDS011;6639;50.956;4.242;2024-01-30T00:51:06;7.72;;;6.93;;
13147;SDS011;6639;50.956;4.242;2024-01-30T00:53:34;9.30;;;6.57;;
13147;SDS011;6639;50.956;4.242;2024-01-30T00:56:01;7.82;;;6.20;;
13147;SDS011;6639;50.956;4.242;2024-01-30T00:58:30;9.02;;;6.43;;
13147;SDS011;6639;50.956;4.242;2024-01-30T01:00:57;8.00;;;6.28;;
13147;SDS011;6639;50.956;4.242;2024-01-30T01:03:23;8.93;;;6.68;;
13147;SDS011;6639;50.956;4.242;2024-01-30T01:05:53;10.18;;;7.30;;
13147;SDS011;6639;50.956;4.242;2024-01-30T01:08:20;9.05;;;6.53;;
13147;SDS011;6639;50.956;4.242;2024-01-30T01:10:48;8.50;;;6.13;;
13147;SDS011;6639;50.956;4.242;2024-01-30T01:13:14;6.65;;;6.00;;
13147;SDS011;6639;50.956;4.242;2024-01-30T01:15:43;7.90;;;6.07;;
13147;SDS011;6639;50.956;4.242;2024-01-30T01:18:10;9.20;;;6.45;;
13147;SDS011;6639;50.956;4.242;2024-01-30T01:20:37;7.20;;;5.55;;
13147;SDS011;6639;50.956;4.242;2024-01-30T01:23:04;6.63;;;5.97;;
13147;SDS011;6639;50.956;4.242;2024-01-30T01:25:31;8.70;;;5.72;;
13147;SDS011;6639;50.956;4.242;2024-01-30T01:27:58;7.68;;;6.63;;
13147;SDS011;6639;50.956;4.242;2024-01-30T01:30:26;7.72;;;6.53;;
13147;SDS011;6639;50.956;4.242;2024-01-30T01:32:55;9.10;;;6.68;;
13147;SDS011;6639;50.956;4.242;2024-01-30T01:35:26;8.07;;;6.18;;
13147;SDS011;6639;50.956;4.242;2024-01-30T01:37:53;8.52;;;6.45;;
13147;SDS011;6639;50.956;4.242;2024-01-30T01:40:22;8.38;;;6.47;;
13147;SDS011;6639;50.956;4.242;2024-01-30T01:42:49;8.13;;;5.70;;
13147;SDS011;6639;50.956;4.242;2024-01-30T01:45:17;9.93;;;6.55;;
13147;SDS011;6639;50.956;4.242;2024-01-30T01:47:45;7.13;;;5.65;;
13147;SDS011;6639;50.956;4.242;2024-01-30T01:50:16;9.27;;;6.53;;
13147;SDS011;6639;50.956;4.242;2024-01-30T01:52:44;9.57;;;6.40;;
13147;SDS011;6639;50.956;4.242;2024-01-30T01:55:12;7.90;;;6.18;;
13147;SDS011;6639;50.956;4.242;2024-01-30T01:57:41;7.75;;;5.78;;
13147;SDS011;6639;50.956;4.242;2024-01-30T02:00:08;6.93;;;6.22;;
13147;SDS011;6639;50.956;4.242;2024-01-30T02:02:36;7.20;;;5.95;;
13147;SDS011;6639;50.956;4.242;2024-01-30T02:05:05;9.35;;;6.85;;
13147;SDS011;6639;50.956;4.242;2024-01-30T02:07:34;9.32;;;5.75;;
13147;SDS011;6639;50.956;4.242;2024-01-30T02:10:01;8.82;;;6.53;;
13147;SDS011;6639;50.956;4.242;2024-01-30T02:12:28;7.40;;;6.22;;
13147;SDS011;6639;50.956;4.242;2024-01-30T02:14:55;10.32;;;6.53;;
13147;SDS011;6639;50.956;4.242;2024-01-30T02:17:23;10.85;;;7.00;;
13147;SDS011;6639;50.956;4.242;2024-01-30T02:19:50;8.27;;;5.95;;
13147;SDS011;6639;50.956;4.242;2024-01-30T02:22:19;9.90;;;6.30;;
13147;SDS011;6639;50.956;4.242;2024-01-30T02:24:47;7.55;;;6.47;;
13147;SDS011;6639;50.956;4.242;2024-01-30T02:27:14;9.80;;;6.15;;
13147;SDS011;6639;50.956;4.242;2024-01-30T02:29:41;7.53;;;5.85;;
13147;SDS011;6639;50.956;4.242;2024-01-30T02:32:08;7.95;;;6.30;;
13147;SDS011;6639;50.956;4.242;2024-01-30T02:34:35;7.40;;;6.50;;
13147;SDS011;6639;50.956;4.242;2024-01-30T02:37:02;8.13;;;5.88;;
13147;SDS011;6639;50.956;4.242;2024-01-30T02:39:31;8.18;;;6.03;;
13147;SDS011;6639;50.956;4.242;2024-01-30T02:41:59;8.00;;;6.50;;
13147;SDS011;6639;50.956;4.242;2024-01-30T02:44:26;9.40;;;6.30;;
13147;SDS011;6639;50.956;4.242;2024-01-30T02:46:53;8.35;;;5.88;;
13147;SDS011;6639;50.956;4.242;2024-01-30T02:49:20;10.23;;;7.20;;
13147;SDS011;6639;50.956;4.242;2024-01-30T02:51:47;10.57;;;6.53;;
13147;SDS011;6639;50.956;4.242;2024-01-30T02:54:14;7.38;;;5.90;;
13147;SDS011;6639;50.956;4.242;2024-01-30T02:56:42;7.10;;;5.55;;
13147;SDS011;6639;50.956;4.242;2024-01-30T02:59:09;9.02;;;6.15;;
13147;SDS011;6639;50.956;4.242;2024-01-30T03:01:42;11.38;;;6.40;;
13147;SDS011;6639;50.956;4.242;2024-01-30T03:04:10;9.55;;;6.35;;
13147;SDS011;6639;50.956;4.242;2024-01-30T03:06:37;9.02;;;6.63;;
13147;SDS011;6639;50.956;4.242;2024-01-30T03:09:04;7.63;;;5.90;;
13147;SDS011;6639;50.956;4.242;2024-01-30T03:11:31;10.18;;;6.53;;
13147;SDS011;6639;50.956;4.242;2024-01-30T03:13:59;8.38;;;6.60;;
13147;SDS011;6639;50.956;4.242;2024-01-30T03:16:26;6.55;;;5.28;;
13147;SDS011;6639;50.956;4.242;2024-01-30T03:18:53;7.00;;;5.32;;
13147;SDS011;6639;50.956;4.242;2024-01-30T03:21:20;7.60;;;5.97;;
13147;SDS011;6639;50.956;4.242;2024-01-30T03:23:47;8.38;;;5.70;;
13147;SDS011;6639;50.956;4.242;2024-01-30T03:26:13;8.20;;;6.88;;
13147;SDS011;6639;50.956;4.242;2024-01-30T03:28:41;8.38;;;6.05;;
13147;SDS011;6639;50.956;4.242;2024-01-30T03:31:09;7.38;;;6.10;;
13147;SDS011;6639;50.956;4.242;2024-01-30T03:33:36;9.43;;;6.45;;
13147;SDS011;6639;50.956;4.242;2024-01-30T03:36:04;10.23;;;6.63;;
13147;SDS011;6639;50.956;4.242;2024-01-30T03:38:31;7.88;;;6.22;;
13147;SDS011;6639;50.956;4.242;2024-01-30T03:40:58;8.80;;;6.25;;
13147;SDS011;6639;50.956;4.242;2024-01-30T03:43:25;8.73;;;6.45;;
13147;SDS011;6639;50.956;4.242;2024-01-30T03:45:52;9.93;;;6.47;;
13147;SDS011;6639;50.956;4.242;2024-01-30T03:48:21;7.70;;;6.30;;
13147;SDS011;6639;50.956;4.242;2024-01-30T03:50:48;7.68;;;6.18;;
13147;SDS011;6639;50.956;4.242;2024-01-30T03:53:15;6.85;;;5.63;;
13147;SDS011;6639;50.956;4.242;2024-01-30T03:55:42;7.50;;;5.57;;
13147;SDS011;6639;50.956;4.242;2024-01-30T03:58:09;8.82;;;5.95;;
13147;SDS011;6639;50.956;4.242;2024-01-30T04:00:35;7.22;;;6.40;;
13147;SDS011;6639;50.956;4.242;2024-01-30T04:03:02;7.43;;;6.32;;
13147;SDS011;6639;50.956;4.242;2024-01-30T04:05:31;7.65;;;6.13;;
13147;SDS011;6639;50.956;4.242;2024-01-30T04:07:59;8.77;;;6.38;;
13147;SDS011;6639;50.956;4.242;2024-01-30T04:10:26;8.43;;;6.15;;
13147;SDS011;6639;50.956;4.242;2024-01-30T04:12:53;6.82;;;5.53;;
13147;SDS011;6639;50.956;4.242;2024-01-30T04:15:21;8.32;;;6.50;;
13147;SDS011;6639;50.956;4.242;2024-01-30T04:17:48;8.90;;;5.88;;
13147;SDS011;6639;50.956;4.242;2024-01-30T04:20:15;8.95;;;5.85;;
13147;SDS011;6639;50.956;4.242;2024-01-30T04:22:44;11.20;;;6.47;;
13147;SDS011;6639;50.956;4.242;2024-01-30T04:25:12;7.00;;;5.55;;
13147;SDS011;6639;50.956;4.242;2024-01-30T04:27:39;8.57;;;5.70;;
13147;SDS011;6639;50.956;4.242;2024-01-30T04:30:06;6.85;;;5.47;;
13147;SDS011;6639;50.956;4.242;2024-01-30T04:32:34;7.78;;;6.07;;
13147;SDS011;6639;50.956;4.242;2024-01-30T04:35:02;8.02;;;5.93;;
13147;SDS011;6639;50.956;4.242;2024-01-30T04:37:29;7.70;;;5.88;;
13147;SDS011;6639;50.956;4.242;2024-01-30T04:39:58;7.82;;;6.32;;
13147;SDS011;6639;50.956;4.242;2024-01-30T04:42:25;10.35;;;6.78;;
13147;SDS011;6639;50.956;4.242;2024-01-30T04:44:52;7.93;;;6.30;;
13147;SDS011;6639;50.956;4.242;2024-01-30T04:47:19;9.88;;;6.28;;
13147;SDS011;6639;50.956;4.242;2024-01-30T04:49:46;13.85;;;7.32;;
13147;SDS011;6639;50.956;4.242;2024-01-30T04:52:13;9.18;;;6.43;;
13147;SDS011;6639;50.956;4.242;2024-01-30T04:54:40;8.88;;;6.47;;
13147;SDS011;6639;50.956;4.242;2024-01-30T04:57:09;6.78;;;6.10;;
13147;SDS011;6639;50.956;4.242;2024-01-30T04:59:37;9.95;;;7.00;;
13147;SDS011;6639;50.956;4.242;2024-01-30T05:02:04;7.40;;;6.57;;
13147;SDS011;6639;50.956;4.242;2024-01-30T05:04:32;9.45;;;6.65;;
13147;SDS011;6639;50.956;4.242;2024-01-30T05:06:59;10.05;;;7.10;;
13147;SDS011;6639;50.956;4.242;2024-01-30T05:09:25;9.65;;;7.00;;
13147;SDS011;6639;50.956;4.242;2024-01-30T05:11:53;8.77;;;6.40;;
13147;SDS011;6639;50.956;4.242;2024-01-30T05:14:21;10.02;;;7.22;;
13147;SDS011;6639;50.956;4.242;2024-01-30T05:16:48;9.68;;;6.88;;
13147;SDS011;6639;50.956;4.242;2024-01-30T05:19:16;10.82;;;7.28;;
13147;SDS011;6639;50.956;4.242;2024-01-30T05:21:43;11.43;;;7.78;;
13147;SDS011;6639;50.956;4.242;2024-01-30T05:24:10;9.93;;;6.68;;
13147;SDS011;6639;50.956;4.242;2024-01-30T05:26:38;11.30;;;7.55;;
13147;SDS011;6639;50.956;4.242;2024-01-30T05:29:04;11.43;;;7.32;;
13147;SDS011;6639;50.956;4.242;2024-01-30T05:31:36;9.35;;;7.45;;
13147;SDS011;6639;50.956;4.242;2024-01-30T05:34:03;10.68;;;7.30;;
13147;SDS011;6639;50.956;4.242;2024-01-30T05:36:31;11.45;;;7.63;;
13147;SDS011;6639;50.956;4.242;2024-01-30T05:38:58;12.82;;;7.43;;
13147;SDS011;6639;50.956;4.242;2024-01-30T05:41:25;9.77;;;7.07;;
13147;SDS011;6639;50.956;4.242;2024-01-30T05:43:52;9.68;;;7.22;;
13147;SDS011;6639;50.956;4.242;2024-01-30T05:46:19;9.68;;;7.38;;
13147;SDS011;6639;50.956;4.242;2024-01-30T05:48:47;10.85;;;7.50;;
13147;SDS011;6639;50.956;4.242;2024-01-30T05:51:14;13.00;;;6.95;;
13147;SDS011;6639;50.956;4.242;2024-01-30T05:53:41;9.15;;;6.65;;
13147;SDS011;6639;50.956;4.242;2024-01-30T05:56:08;10.13;;;7.35;;
13147;SDS011;6639;50.956;4.242;2024-01-30T05:58:35;13.25;;;7.47;;
13147;SDS011;6639;50.956;4.242;2024-01-30T06:01:03;15.23;;;7.53;;
13147;SDS011;6639;50.956;4.242;2024-01-30T06:03:33;12.13;;;7.15;;
13147;SDS011;6639;50.956;4.242;2024-01-30T06:06:01;10.25;;;7.18;;
13147;SDS011;6639;50.956;4.242;2024-01-30T06:08:29;11.63;;;6.82;;
13147;SDS011;6639;50.956;4.242;2024-01-30T06:10:56;14.57;;;8.80;;
13147;SDS011;6639;50.956;4.242;2024-01-30T06:13:23;7.18;;;6.20;;
13147;SDS011;6639;50.956;4.242;2024-01-30T06:15:49;12.88;;;7.38;;
13147;SDS011;6639;50.956;4.242;2024-01-30T06:18:16;14.07;;;6.97;;
13147;SDS011;6639;50.956;4.242;2024-01-30T06:20:43;8.93;;;7.07;;
13147;SDS011;6639;50.956;4.242;2024-01-30T06:23:12;10.60;;;7.10;;
13147;SDS011;6639;50.956;4.242;2024-01-30T06:25:40;13.15;;;7.68;;
13147;SDS011;6639;50.956;4.242;2024-01-30T06:28:07;12.25;;;7.50;;
13147;SDS011;6639;50.956;4.242;2024-01-30T06:30:34;11.45;;;7.38;;
13147;SDS011;6639;50.956;4.242;2024-01-30T06:33:01;14.30;;;8.25;;
13147;SDS011;6639;50.956;4.242;2024-01-30T06:35:27;12.70;;;7.72;;
13147;SDS011;6639;50.956;4.242;2024-01-30T06:37:55;16.38;;;9.35;;
13147;SDS011;6639;50.956;4.242;2024-01-30T06:40:23;13.30;;;7.88;;
13147;SDS011;6639;50.956;4.242;2024-01-30T06:42:50;12.10;;;7.93;;
13147;SDS011;6639;50.956;4.242;2024-01-30T06:45:17;12.27;;;7.63;;
13147;SDS011;6639;50.956;4.242;2024-01-30T06:47:44;12.52;;;8.15;;
13147;SDS011;6639;50.956;4.242;2024-01-30T06:50:11;12.40;;;7.97;;
13147;SDS011;6639;50.956;4.242;2024-01-30T06:52:38;16.25;;;8.00;;
13147;SDS011;6639;50.956;4.242;2024-01-30T06:55:05;15.73;;;8.55;;
13147;SDS011;6639;50.956;4.242;2024-01-30T06:57:34;14.73;;;8.60;;
13147;SDS011;6639;50.956;4.242;2024-01-30T07:00:01;14.23;;;8.27;;
13147;SDS011;6639;50.956;4.242;2024-01-30T07:02:28;13.18;;;8.23;;
13147;SDS011;6639;50.956;4.242;2024-01-30T07:04:55;16.73;;;8.10;;
13147;SDS011;6639;50.956;4.242;2024-01-30T07:07:22;14.48;;;8.55;;
13147;SDS011;6639;50.956;4.242;2024-01-30T07:09:49;17.05;;;8.55;;
13147;SDS011;6639;50.956;4.242;2024-01-30T07:12:20;15.85;;;8.10;;
13147;SDS011;6639;50.956;4.242;2024-01-30T07:14:49;14.55;;;8.57;;
13147;SDS011;6639;50.956;4.242;2024-01-30T07:17:16;13.15;;;7.68;;
13147;SDS011;6639;50.956;4.242;2024-01-30T07:19:42;16.73;;;9.32;;
13147;SDS011;6639;50.956;4.242;2024-01-30T07:22:10;13.02;;;8.50;;
13147;SDS011;6639;50.956;4.242;2024-01-30T07:24:41;14.65;;;9.07;;
13147;SDS011;6639;50.956;4.242;2024-01-30T07:27:10;14.20;;;9.18;;
13147;SDS011;6639;50.956;4.242;2024-01-30T07:29:37;12.00;;;8.40;;
13147;SDS011;6639;50.956;4.242;2024-01-30T07:32:06;14.43;;;7.90;;
13147;SDS011;6639;50.956;4.242;2024-01-30T07:34:33;14.63;;;8.35;;
13147;SDS011;6639;50.956;4.242;2024-01-30T07:36:59;13.30;;;8.23;;
13147;SDS011;6639;50.956;4.242;2024-01-30T07:39:26;12.52;;;7.70;;
13147;SDS011;6639;50.956;4.242;2024-01-30T07:41:54;10.35;;;7.88;;
13147;SDS011;6639;50.956;4.242;2024-01-30T07:44:21;9.35;;;6.68;;
13147;SDS011;6639;50.956;4.242;2024-01-30T07:46:48;9.05;;;6.88;;
13147;SDS011;6639;50.956;4.242;2024-01-30T07:49:17;8.75;;;6.43;;
13147;SDS011;6639;50.956;4.242;2024-01-30T07:51:44;6.63;;;5.93;;
13147;SDS011;6639;50.956;4.242;2024-01-30T07:54:14;7.43;;;6.00;;
13147;SDS011;6639;50.956;4.242;2024-01-30T07:56:41;9.75;;;6.35;;
13147;SDS011;6639;50.956;4.242;2024-01-30T07:59:09;7.75;;;6.55;;
13147;SDS011;6639;50.956;4.242;2024-01-30T08:01:36;9.25;;;6.45;;
13147;SDS011;6639;50.956;4.242;2024-01-30T08:04:03;7.60;;;6.15;;
13147;SDS011;6639;50.956;4.242;2024-01-30T08:06:32;7.22;;;5.95;;
13147;SDS011;6639;50.956;4.242;2024-01-30T08:08:59;8.00;;;6.00;;
13147;SDS011;6639;50.956;4.242;2024-01-30T08:11:26;8.65;;;6.00;;
13147;SDS011;6639;50.956;4.242;2024-01-30T08:13:54;8.45;;;6.40;;
13147;SDS011;6639;50.956;4.242;2024-01-30T08:16:21;8.63;;;6.70;;
13147;SDS011;6639;50.956;4.242;2024-01-30T08:18:49;9.10;;;6.55;;
13147;SDS011;6639;50.956;4.242;2024-01-30T08:21:16;8.18;;;6.35;;
13147;SDS011;6639;50.956;4.242;2024-01-30T08:23:44;8.10;;;6.20;;
13147;SDS011;6639;50.956;4.242;2024-01-30T08:26:11;9.98;;;6.47;;
13147;SDS011;6639;50.956;4.242;2024-01-30T08:28:38;11.38;;;7.35;;
13147;SDS011;6639;50.956;4.242;2024-01-30T08:31:05;7.90;;;6.65;;
13147;SDS011;6639;50.956;4.242;2024-01-30T08:33:32;7.35;;;6.55;;
13147;SDS011;6639;50.956;4.242;2024-01-30T08:35:59;8.13;;;6.18;;
13147;SDS011;6639;50.956;4.242;2024-01-30T08:38:26;7.85;;;6.25;;
13147;SDS011;6639;50.956;4.242;2024-01-30T08:40:54;9.07;;;6.45;;
13147;SDS011;6639;50.956;4.242;2024-01-30T08:43:22;7.65;;;6.82;;
13147;SDS011;6639;50.956;4.242;2024-01-30T08:45:49;6.95;;;6.18;;
13147;SDS011;6639;50.956;4.242;2024-01-30T08:48:16;11.90;;;7.00;;
13147;SDS011;6639;50.956;4.242;2024-01-30T08:50:44;7.32;;;6.55;;
13147;SDS011;6639;50.956;4.242;2024-01-30T08:53:10;7.32;;;6.35;;
13147;SDS011;6639;50.956;4.242;2024-01-30T08:55:37;8.43;;;6.88;;
13147;SDS011;6639;50.956;4.242;2024-01-30T08:58:06;8.13;;;6.72;;
13147;SDS011;6639;50.956;4.242;2024-01-30T09:00:33;8.45;;;6.47;;
13147;SDS011;6639;50.956;4.242;2024-01-30T09:03:00;8.75;;;6.10;;
13147;SDS011;6639;50.956;4.242;2024-01-30T09:05:26;9.65;;;6.40;;
13147;SDS011;6639;50.956;4.242;2024-01-30T09:07:53;7.25;;;6.05;;
13147;SDS011;6639;50.956;4.242;2024-01-30T09:10:20;7.75;;;6.55;;
13147;SDS011;6639;50.956;4.242;2024-01-30T09:12:48;7.25;;;6.30;;
13147;SDS011;6639;50.956;4.242;2024-01-30T09:15:16;8.00;;;6.40;;
13147;SDS011;6639;50.956;4.242;2024-01-30T09:17:44;8.88;;;6.32;;
13147;SDS011;6639;50.956;4.242;2024-01-30T09:20:12;7.40;;;6.63;;
13147;SDS011;6639;50.956;4.242;2024-01-30T09:22:39;7.78;;;6.80;;
13147;SDS011;6639;50.956;4.242;2024-01-30T09:25:06;9.32;;;6.20;;
13147;SDS011;6639;50.956;4.242;2024-01-30T09:27:34;10.82;;;6.90;;
13147;SDS011;6639;50.956;4.242;2024-01-30T09:30:01;6.55;;;5.93;;
13147;SDS011;6639;50.956;4.242;2024-01-30T09:32:29;9.05;;;6.07;;
13147;SDS011;6639;50.956;4.242;2024-01-30T09:34:56;11.85;;;7.13;;
13147;SDS011;6639;50.956;4.242;2024-01-30T09:37:24;9.57;;;6.90;;
13147;SDS011;6639;50.956;4.242;2024-01-30T09:39:52;8.52;;;7.32;;
13147;SDS011;6639;50.956;4.242;2024-01-30T09:42:21;10.23;;;7.63;;
13147;SDS011;6639;50.956;4.242;2024-01-30T09:44:54;10.93;;;6.57;;
13147;SDS011;6639;50.956;4.242;2024-01-30T09:47:22;7.70;;;6.88;;
13147;SDS011;6639;50.956;4.242;2024-01-30T09:49:50;8.23;;;6.95;;
13147;SDS011;6639;50.956;4.242;2024-01-30T09:52:17;8.07;;;7.30;;
13147;SDS011;6639;50.956;4.242;2024-01-30T09:54:44;9.73;;;7.18;;
13147;SDS011;6639;50.956;4.242;2024-01-30T09:57:12;9.10;;;7.05;;
13147;SDS011;6639;50.956;4.242;2024-01-30T09:59:41;11.85;;;8.52;;
13147;SDS011;6639;50.956;4.242;2024-01-30T10:02:08;8.23;;;7.38;;
13147;SDS011;6639;50.956;4.242;2024-01-30T10:04:35;10.68;;;7.90;;
13147;SDS011;6639;50.956;4.242;2024-01-30T10:07:04;9.63;;;6.53;;
13147;SDS011;6639;50.956;4.242;2024-01-30T10:09:31;8.82;;;6.65;;
13147;SDS011;6639;50.956;4.242;2024-01-30T10:11:59;10.75;;;6.93;;
13147;SDS011;6639;50.956;4.242;2024-01-30T10:14:28;9.13;;;6.28;;
13147;SDS011;6639;50.956;4.242;2024-01-30T10:16:55;7.13;;;6.43;;
13147;SDS011;6639;50.956;4.242;2024-01-30T10:19:23;7.78;;;5.18;;
13147;SDS011;6639;50.956;4.242;2024-01-30T10:21:50;8.80;;;4.93;;
13147;SDS011;6639;50.956;4.242;2024-01-30T10:24:23;8.32;;;4.30;;
13147;SDS011;6639;50.956;4.242;2024-01-30T10:26:49;6.07;;;3.30;;
13147;SDS011;6639;50.956;4.242;2024-01-30T10:29:16;7.75;;;3.80;;
13147;SDS011;6639;50.956;4.242;2024-01-30T10:31:43;10.93;;;3.88;;
13147;SDS011;6639;50.956;4.242;2024-01-30T10:34:10;6.38;;;3.28;;
13147;SDS011;6639;50.956;4.242;2024-01-30T10:36:39;5.40;;;2.88;;
13147;SDS011;6639;50.956;4.242;2024-01-30T10:39:07;9.48;;;2.78;;
13147;SDS011;6639;50.956;4.242;2024-01-30T10:41:41;3.83;;;2.00;;
13147;SDS011;6639;50.956;4.242;2024-01-30T10:44:10;6.07;;;1.92;;
13147;SDS011;6639;50.956;4.242;2024-01-30T10:46:37;5.38;;;2.15;;
13147;SDS011;6639;50.956;4.242;2024-01-30T10:49:05;5.07;;;1.95;;
13147;SDS011;6639;50.956;4.242;2024-01-30T10:51:32;3.97;;;1.77;;
13147;SDS011;6639;50.956;4.242;2024-01-30T10:54:01;5.00;;;1.45;;
13147;SDS011;6639;50.956;4.242;2024-01-30T10:56:29;2.60;;;1.35;;
13147;SDS011;6639;50.956;4.242;2024-01-30T10:58:59;3.90;;;1.42;;
13147;SDS011;6639;50.956;4.242;2024-01-30T11:01:28;3.67;;;1.38;;
13147;SDS011;6639;50.956;4.242;2024-01-30T11:03:55;3.13;;;1.63;;
13147;SDS011;6639;50.956;4.242;2024-01-30T11:06:22;1.88;;;1.30;;
13147;SDS011;6639;50.956;4.242;2024-01-30T11:09:00;3.65;;;1.20;;
13147;SDS011;6639;50.956;4.242;2024-01-30T11:11:29;2.65;;;1.35;;
13147;SDS011;6639;50.956;4.242;2024-01-30T11:14:00;3.67;;;0.95;;
13147;SDS011;6639;50.956;4.242;2024-01-30T11:16:30;3.50;;;1.23;;
13147;SDS011;6639;50.956;4.242;2024-01-30T11:18:59;2.90;;;0.90;;
13147;SDS011;6639;50.956;4.242;2024-01-30T11:21:27;2.38;;;0.75;;
13147;SDS011;6639;50.956;4.242;2024-01-30T11:23:54;1.88;;;0.80;;
13147;SDS011;6639;50.956;4.242;2024-01-30T11:26:23;3.15;;;1.30;;
13147;SDS011;6639;50.956;4.242;2024-01-30T11:28:53;3.83;;;1.33;;
13147;SDS011;6639;50.956;4.242;2024-01-30T11:31:23;3.17;;;1.20;;
13147;SDS011;6639;50.956;4.242;2024-01-30T11:33:52;1.95;;;1.08;;
13147;SDS011;6639;50.956;4.242;2024-01-30T11:36:21;2.17;;;1.08;;
13147;SDS011;6639;50.956;4.242;2024-01-30T11:38:51;1.13;;;1.00;;
13147;SDS011;6639;50.956;4.242;2024-01-30T11:41:18;2.65;;;1.05;;
13147;SDS011;6639;50.956;4.242;2024-01-30T11:43:51;1.70;;;1.20;;
13147;SDS011;6639;50.956;4.242;2024-01-30T11:46:18;3.00;;;1.20;;
13147;SDS011;6639;50.956;4.242;2024-01-30T11:48:46;4.05;;;1.73;;
13147;SDS011;6639;50.956;4.242;2024-01-30T11:51:13;3.17;;;1.27;;
13147;SDS011;6639;50.956;4.242;2024-01-30T11:53:41;4.88;;;1.25;;
13147;SDS011;6639;50.956;4.242;2024-01-30T11:56:08;2.85;;;1.00;;
13147;SDS011;6639;50.956;4.242;2024-01-30T11:58:35;0.80;;;0.80;;
13147;SDS011;6639;50.956;4.242;2024-01-30T12:01:02;3.28;;;1.20;;
13147;SDS011;6639;50.956;4.242;2024-01-30T12:03:28;1.73;;;0.80;;
13147;SDS011;6639;50.956;4.242;2024-01-30T12:05:57;3.92;;;1.00;;
13147;SDS011;6639;50.956;4.242;2024-01-30T12:08:24;1.25;;;1.15;;
13147;SDS011;6639;50.956;4.242;2024-01-30T12:10:55;2.30;;;0.88;;
13147;SDS011;6639;50.956;4.242;2024-01-30T12:13:23;2.92;;;0.80;;
13147;SDS011;6639;50.956;4.242;2024-01-30T12:15:51;4.50;;;0.93;;
13147;SDS011;6639;50.956;4.242;2024-01-30T12:18:19;1.80;;;0.75;;
13147;SDS011;6639;50.956;4.242;2024-01-30T12:20:57;1.42;;;1.08;;
13147;SDS011;6639;50.956;4.242;2024-01-30T12:23:25;2.40;;;0.70;;
13147;SDS011;6639;50.956;4.242;2024-01-30T12:25:52;2.70;;;0.77;;
13147;SDS011;6639;50.956;4.242;2024-01-30T12:28:20;1.27;;;0.70;;
13147;SDS011;6639;50.956;4.242;2024-01-30T12:30:47;2.90;;;1.00;;
13147;SDS011;6639;50.956;4.242;2024-01-30T12:33:16;2.13;;;0.60;;
13147;SDS011;6639;50.956;4.242;2024-01-30T12:35:45;2.72;;;0.55;;
13147;SDS011;6639;50.956;4.242;2024-01-30T12:38:13;1.90;;;0.73;;
13147;SDS011;6639;50.956;4.242;2024-01-30T12:40:41;0.93;;;0.45;;
13147;SDS011;6639;50.956;4.242;2024-01-30T12:43:07;2.80;;;0.80;;
13147;SDS011;6639;50.956;4.242;2024-01-30T12:45:35;1.30;;;0.90;;
13147;SDS011;6639;50.956;4.242;2024-01-30T12:48:02;2.35;;;0.60;;
13147;SDS011;6639;50.956;4.242;2024-01-30T12:50:29;2.22;;;1.00;;
13147;SDS011;6639;50.956;4.242;2024-01-30T12:52:56;1.02;;;0.88;;
13147;SDS011;6639;50.956;4.242;2024-01-30T12:55:25;3.60;;;1.33;;
13147;SDS011;6639;50.956;4.242;2024-01-30T12:57:53;2.05;;;0.70;;
13147;SDS011;6639;50.956;4.242;2024-01-30T13:00:20;1.52;;;0.98;;
13147;SDS011;6639;50.956;4.242;2024-01-30T13:02:47;1.65;;;1.10;;
13147;SDS011;6639;50.956;4.242;2024-01-30T13:05:14;1.10;;;0.82;;
13147;SDS011;6639;50.956;4.242;2024-01-30T13:07:41;1.98;;;0.95;;
13147;SDS011;6639;50.956;4.242;2024-01-30T13:10:08;2.42;;;1.20;;
13147;SDS011;6639;50.956;4.242;2024-01-30T13:12:37;3.17;;;1.20;;
13147;SDS011;6639;50.956;4.242;2024-01-30T13:15:04;2.05;;;0.80;;
13147;SDS011;6639;50.956;4.242;2024-01-30T13:17:32;1.52;;;0.70;;
13147;SDS011;6639;50.956;4.242;2024-01-30T13:19:59;3.72;;;0.80;;
13147;SDS011;6639;50.956;4.242;2024-01-30T13:22:26;4.07;;;0.90;;
13147;SDS011;6639;50.956;4.242;2024-01-30T13:24:53;1.20;;;0.93;;
13147;SDS011;6639;50.956;4.242;2024-01-30T13:27:20;1.77;;;0.93;;
13147;SDS011;6639;50.956;4.242;2024-01-30T13:29:48;1.17;;;0.93;;
13147;SDS011;6639;50.956;4.242;2024-01-30T13:32:15;3.45;;;1.08;;
13147;SDS011;6639;50.956;4.242;2024-01-30T13:34:42;1.92;;;1.13;;
13147;SDS011;6639;50.956;4.242;2024-01-30T13:37:09;3.95;;;1.25;;
13147;SDS011;6639;50.956;4.242;2024-01-30T13:39:36;2.90;;;1.40;;
13147;SDS011;6639;50.956;4.242;2024-01-30T13:42:04;3.30;;;1.60;;
13147;SDS011;6639;50.956;4.242;2024-01-30T13:44:31;3.10;;;1.40;;
13147;SDS011;6639;50.956;4.242;2024-01-30T13:46:59;3.42;;;1.45;;
13147;SDS011;6639;50.956;4.242;2024-01-30T13:49:26;2.58;;;1.25;;
13147;SDS011;6639;50.956;4.242;2024-01-30T13:51:53;3.58;;;1.40;;
13147;SDS011;6639;50.956;4.242;2024-01-30T13:54:20;3.35;;;1.40;;
13147;SDS011;6639;50.956;4.242;2024-01-30T13:56:47;2.35;;;1.13;;
13147;SDS011;6639;50.956;4.242;2024-01-30T13:59:14;4.22;;;1.40;;
13147;SDS011;6639;50.956;4.242;2024-01-30T14:01:40;4.25;;;1.40;;
13147;SDS011;6639;50.956;4.242;2024-01-30T14:04:09;3.45;;;1.38;;
13147;SDS011;6639;50.956;4.242;2024-01-30T14:06:36;2.88;;;1.20;;
13147;SDS011;6639;50.956;4.242;2024-01-30T14:09:03;3.72;;;1.30;;
13147;SDS011;6639;50.956;4.242;2024-01-30T14:11:30;3.13;;;1.50;;
13147;SDS011;6639;50.956;4.242;2024-01-30T14:13:57;2.97;;;2.03;;
13147;SDS011;6639;50.956;4.242;2024-01-30T14:16:24;3.15;;;1.63;;
13147;SDS011;6639;50.956;4.242;2024-01-30T14:18:51;2.28;;;1.20;;
13147;SDS011;6639;50.956;4.242;2024-01-30T14:21:20;1.55;;;1.00;;
13147;SDS011;6639;50.956;4.242;2024-01-30T14:23:49;3.03;;;1.40;;
13147;SDS011;6639;50.956;4.242;2024-01-30T14:26:16;3.40;;;1.80;;
13147;SDS011;6639;50.956;4.242;2024-01-30T14:28:43;2.55;;;1.90;;
13147;SDS011;6639;50.956;4.242;2024-01-30T14:31:11;3.78;;;1.67;;
13147;SDS011;6639;50.956;4.242;2024-01-30T14:33:39;5.68;;;1.80;;
13147;SDS011;6639;50.956;4.242;2024-01-30T14:36:06;4.88;;;1.70;;
13147;SDS011;6639;50.956;4.242;2024-01-30T14:38:36;3.17;;;1.48;;
13147;SDS011;6639;50.956;4.242;2024-01-30T14:41:03;1.90;;;1.42;;
13147;SDS011;6639;50.956;4.242;2024-01-30T14:43:31;2.60;;;1.38;;
13147;SDS011;6639;50.956;4.242;2024-01-30T14:45:57;1.92;;;1.45;;
13147;SDS011;6639;50.956;4.242;2024-01-30T14:48:24;3.85;;;1.15;;
13147;SDS011;6639;50.956;4.242;2024-01-30T14:50:51;3.00;;;1.20;;
13147;SDS011;6639;50.956;4.242;2024-01-30T14:53:18;3.08;;;1.40;;
13147;SDS011;6639;50.956;4.242;2024-01-30T14:55:47;1.90;;;1.30;;
13147;SDS011;6639;50.956;4.242;2024-01-30T14:58:13;3.22;;;1.50;;
13147;SDS011;6639;50.956;4.242;2024-01-30T15:00:40;2.00;;;1.50;;